createdAt,value
2018-12-29T00:00:19.020Z,1023.73
2018-12-29T00:01:19.042Z,1023.78
2018-12-29T00:02:19.063Z,1023.78
2018-12-29T00:03:19.083Z,1023.74
2018-12-29T00:04:19.105Z,1023.74
2018-12-29T00:05:19.128Z,1023.69
2018-12-29T00:06:19.151Z,1023.73
2018-12-29T00:07:19.372Z,1023.72
2018-12-29T00:08:19.397Z,1023.73
2018-12-29T00:09:19.423Z,1023.66
2018-12-29T00:10:19.488Z,1023.69
2018-12-29T00:11:19.412Z,1023.65
2018-12-29T00:12:19.285Z,1023.69
2018-12-29T00:13:19.405Z,1023.62
2018-12-29T00:14:19.328Z,1023.65
2018-12-29T00:15:19.348Z,1023.65
2018-12-29T00:16:19.372Z,1023.65
2018-12-29T00:17:19.392Z,1023.70
2018-12-29T00:18:19.413Z,1023.75
2018-12-29T00:19:19.440Z,1023.69
2018-12-29T00:20:19.459Z,1023.70
2018-12-29T00:21:19.482Z,1023.72
2018-12-29T00:22:19.501Z,1023.71
2018-12-29T00:23:19.527Z,1023.70
2018-12-29T00:24:19.549Z,1023.64
2018-12-29T00:25:19.581Z,1023.66
2018-12-29T00:26:19.593Z,1023.71
2018-12-29T00:27:19.615Z,1023.75
2018-12-29T00:28:19.634Z,1023.68
2018-12-29T00:29:19.659Z,1023.65
2018-12-29T00:30:19.681Z,1023.67
2018-12-29T00:31:19.704Z,1023.66
2018-12-29T00:32:19.726Z,1023.73
2018-12-29T00:33:19.748Z,1023.69
2018-12-29T00:34:19.769Z,1023.72
2018-12-29T00:35:19.792Z,1023.68
2018-12-29T00:36:19.812Z,1023.67
2018-12-29T00:37:19.836Z,1023.69
2018-12-29T00:38:19.855Z,1023.69
2018-12-29T00:39:19.880Z,1023.69
2018-12-29T00:40:19.902Z,1023.71
2018-12-29T00:41:19.923Z,1023.72
2018-12-29T00:42:19.946Z,1023.74
2018-12-29T00:43:19.966Z,1023.77
2018-12-29T00:44:19.989Z,1023.76
2018-12-29T00:45:20.011Z,1023.71
2018-12-29T00:46:20.033Z,1023.68
2018-12-29T00:47:20.059Z,1023.72
2018-12-29T00:48:20.079Z,1023.64
2018-12-29T00:49:20.099Z,1023.68
2018-12-29T00:50:20.123Z,1023.66
2018-12-29T00:51:20.143Z,1023.70
2018-12-29T00:52:20.167Z,1023.71
2018-12-29T00:53:20.189Z,1023.73
2018-12-29T00:54:20.208Z,1023.78
2018-12-29T00:55:20.232Z,1023.82
2018-12-29T00:56:20.255Z,1023.84
2018-12-29T00:57:20.277Z,1023.83
2018-12-29T00:58:20.299Z,1023.84
2018-12-29T00:59:20.321Z,1023.77
2018-12-29T01:00:20.344Z,1023.81
2018-12-29T01:01:20.363Z,1023.81
2018-12-29T01:02:20.385Z,1023.79
2018-12-29T01:03:20.408Z,1023.83
2018-12-29T01:04:20.428Z,1023.86
2018-12-29T01:05:20.453Z,1023.83
2018-12-29T01:06:20.473Z,1023.86
2018-12-29T01:07:20.495Z,1023.85
2018-12-29T01:08:20.517Z,1023.86
2018-12-29T01:09:20.539Z,1023.86
2018-12-29T01:10:20.562Z,1023.83
2018-12-29T01:11:20.583Z,1023.79
2018-12-29T01:12:20.605Z,1023.74
2018-12-29T01:13:20.632Z,1023.82
2018-12-29T01:14:20.683Z,1023.81
2018-12-29T01:15:20.673Z,1023.72
2018-12-29T01:16:20.695Z,1023.79
2018-12-29T01:17:20.718Z,1023.79
2018-12-29T01:18:20.738Z,1023.79
2018-12-29T01:19:20.762Z,1023.81
2018-12-29T01:20:20.783Z,1023.81
2018-12-29T01:21:20.805Z,1023.83
2018-12-29T01:22:20.829Z,1023.82
2018-12-29T01:23:23.881Z,1023.81
2018-12-29T01:24:20.872Z,1023.79
2018-12-29T01:25:20.892Z,1023.79
2018-12-29T01:26:20.912Z,1023.80
2018-12-29T01:27:20.937Z,1023.78
2018-12-29T01:28:20.958Z,1023.81
2018-12-29T01:29:20.982Z,1023.86
2018-12-29T01:30:21.001Z,1023.90
2018-12-29T01:31:21.026Z,1023.89
2018-12-29T01:32:21.048Z,1023.94
2018-12-29T01:33:21.068Z,1023.97
2018-12-29T01:34:21.090Z,1023.96
2018-12-29T01:35:21.119Z,1023.95
2018-12-29T01:36:21.136Z,1023.97
2018-12-29T01:37:21.156Z,1024.00
2018-12-29T01:38:21.177Z,1024.03
2018-12-29T01:39:21.203Z,1024.06
2018-12-29T01:40:21.222Z,1023.98
2018-12-29T01:41:21.296Z,1023.95
2018-12-29T01:42:21.269Z,1024.00
2018-12-29T01:43:21.288Z,1024.02
2018-12-29T01:44:21.310Z,1024.03
2018-12-29T01:45:21.334Z,1024.03
2018-12-29T01:46:21.356Z,1024.01
2018-12-29T01:47:21.378Z,1024.01
2018-12-29T01:48:21.499Z,1024.04
2018-12-29T01:49:21.421Z,1024.02
2018-12-29T01:50:21.446Z,1024.01
2018-12-29T01:51:21.516Z,1023.99
2018-12-29T01:52:21.488Z,1023.97
2018-12-29T01:53:21.512Z,1024.06
2018-12-29T01:54:21.532Z,1023.99
2018-12-29T01:55:21.555Z,1023.96
2018-12-29T01:56:21.578Z,1024.00
2018-12-29T01:57:21.599Z,1023.96
2018-12-29T01:58:21.619Z,1023.96
2018-12-29T01:59:21.641Z,1023.99
2018-12-29T02:00:21.663Z,1024.05
2018-12-29T02:01:21.684Z,1024.02
2018-12-29T02:02:21.710Z,1024.02
2018-12-29T02:03:21.731Z,1024.04
2018-12-29T02:04:21.753Z,1024.02
2018-12-29T02:05:21.774Z,1023.99
2018-12-29T02:06:21.795Z,1023.98
2018-12-29T02:07:21.821Z,1023.99
2018-12-29T02:08:21.842Z,1024.01
2018-12-29T02:09:21.862Z,1024.03
2018-12-29T02:10:21.883Z,1024.02
2018-12-29T02:11:21.908Z,1024.04
2018-12-29T02:12:22.028Z,1024.03
2018-12-29T02:13:21.953Z,1024.02
2018-12-29T02:14:21.975Z,1023.98
2018-12-29T02:15:24.919Z,1023.98
2018-12-29T02:16:22.020Z,1023.98
2018-12-29T02:17:22.040Z,1023.98
2018-12-29T02:18:22.060Z,1024.02
2018-12-29T02:19:22.082Z,1024.03
2018-12-29T02:20:22.107Z,1024.03
2018-12-29T02:21:22.153Z,1024.03
2018-12-29T02:22:22.150Z,1024.03
2018-12-29T02:23:22.175Z,1024.06
2018-12-29T02:24:22.261Z,1024.01
2018-12-29T02:25:22.217Z,1024.00
2018-12-29T02:26:22.235Z,1023.99
2018-12-29T02:27:22.260Z,1023.98
2018-12-29T02:28:22.283Z,1024.07
2018-12-29T02:29:22.304Z,1024.01
2018-12-29T02:30:22.327Z,1024.02
2018-12-29T02:31:22.346Z,1024.03
2018-12-29T02:32:22.369Z,1024.05
2018-12-29T02:33:22.392Z,1024.03
2018-12-29T02:34:22.417Z,1024.05
2018-12-29T02:35:22.437Z,1024.04
2018-12-29T02:36:22.460Z,1024.00
2018-12-29T02:37:22.482Z,1024.10
2018-12-29T02:38:22.505Z,1024.08
2018-12-29T02:39:22.523Z,1024.06
2018-12-29T02:40:22.545Z,1024.07
2018-12-29T02:41:22.573Z,1024.05
2018-12-29T02:42:22.591Z,1024.06
2018-12-29T02:43:22.614Z,1024.13
2018-12-29T02:44:22.633Z,1024.06
2018-12-29T02:45:22.659Z,1024.06
2018-12-29T02:46:22.679Z,1024.03
2018-12-29T02:47:22.705Z,1024.03
2018-12-29T02:48:22.725Z,1024.02
2018-12-29T02:49:22.746Z,1024.05
2018-12-29T02:50:22.768Z,1024.11
2018-12-29T02:51:22.788Z,1024.08
2018-12-29T02:52:22.812Z,1024.05
2018-12-29T02:53:22.832Z,1024.06
2018-12-29T02:54:22.856Z,1024.03
2018-12-29T02:55:22.876Z,1023.98
2018-12-29T02:56:22.902Z,1024.01
2018-12-29T02:57:22.928Z,1023.97
2018-12-29T02:58:22.945Z,1024.03
2018-12-29T02:59:22.963Z,1023.98
2018-12-29T03:00:22.989Z,1024.03
2018-12-29T03:01:23.013Z,1024.03
2018-12-29T03:02:23.033Z,1023.94
2018-12-29T03:03:23.055Z,1023.92
2018-12-29T03:04:23.076Z,1023.95
2018-12-29T03:05:23.102Z,1023.96
2018-12-29T03:06:23.121Z,1023.92
2018-12-29T03:07:23.143Z,1023.94
2018-12-29T03:08:23.167Z,1023.97
2018-12-29T03:09:23.188Z,1023.99
2018-12-29T03:10:23.210Z,1023.95
2018-12-29T03:11:23.233Z,1023.93
2018-12-29T03:12:23.253Z,1023.97
2018-12-29T03:13:23.275Z,1024.01
2018-12-29T03:14:23.297Z,1023.92
2018-12-29T03:15:23.316Z,1023.94
2018-12-29T03:16:23.342Z,1023.96
2018-12-29T03:17:23.365Z,1023.97
2018-12-29T03:18:23.386Z,1023.92
2018-12-29T03:19:23.409Z,1023.97
2018-12-29T03:20:23.432Z,1023.99
2018-12-29T03:21:23.453Z,1023.90
2018-12-29T03:22:23.476Z,1023.97
2018-12-29T03:23:23.493Z,1024.01
2018-12-29T03:24:23.517Z,1024.04
2018-12-29T03:25:23.542Z,1024.00
2018-12-29T03:26:23.563Z,1023.95
2018-12-29T03:27:23.585Z,1023.98
2018-12-29T03:28:23.604Z,1023.91
2018-12-29T03:29:23.628Z,1023.93
2018-12-29T03:30:23.652Z,1023.90
2018-12-29T03:31:23.697Z,1023.81
2018-12-29T03:32:23.704Z,1023.84
2018-12-29T03:33:23.717Z,1023.85
2018-12-29T03:34:23.739Z,1023.82
2018-12-29T03:35:23.765Z,1023.81
2018-12-29T03:36:23.783Z,1023.77
2018-12-29T03:37:23.804Z,1023.78
2018-12-29T03:38:23.832Z,1023.82
2018-12-29T03:39:23.910Z,1023.88
2018-12-29T03:40:23.870Z,1023.88
2018-12-29T03:41:23.895Z,1023.86
2018-12-29T03:42:23.913Z,1023.88
2018-12-29T03:43:23.935Z,1023.81
2018-12-29T03:44:24.033Z,1023.86
2018-12-29T03:45:23.982Z,1023.80
2018-12-29T03:46:24.003Z,1023.77
2018-12-29T03:47:24.025Z,1023.76
2018-12-29T03:48:24.044Z,1023.77
2018-12-29T03:49:24.071Z,1023.78
2018-12-29T03:50:24.092Z,1023.79
2018-12-29T03:51:24.111Z,1023.74
2018-12-29T03:52:24.186Z,1023.70
2018-12-29T03:53:24.155Z,1023.73
2018-12-29T03:54:24.178Z,1023.63
2018-12-29T03:55:24.205Z,1023.69
2018-12-29T03:56:24.223Z,1023.58
2018-12-29T03:57:24.245Z,1023.58
2018-12-29T03:58:24.268Z,1023.61
2018-12-29T03:59:24.292Z,1023.60
2018-12-29T04:00:24.311Z,1023.67
2018-12-29T04:01:24.330Z,1023.59
2018-12-29T04:02:24.355Z,1023.62
2018-12-29T04:03:24.377Z,1023.61
2018-12-29T04:04:24.399Z,1023.60
2018-12-29T04:05:24.418Z,1023.65
2018-12-29T04:06:24.442Z,1023.69
2018-12-29T04:07:24.462Z,1023.64
2018-12-29T04:08:24.488Z,1023.62
2018-12-29T04:09:24.509Z,1023.64
2018-12-29T04:10:24.531Z,1023.62
2018-12-29T04:11:24.551Z,1023.64
2018-12-29T04:12:24.571Z,1023.62
2018-12-29T04:13:24.597Z,1023.64
2018-12-29T04:14:24.622Z,1023.64
2018-12-29T04:15:24.641Z,1023.64
2018-12-29T04:16:24.661Z,1023.55
2018-12-29T04:17:24.686Z,1023.64
2018-12-29T04:18:24.707Z,1023.59
2018-12-29T04:19:24.731Z,1023.56
2018-12-29T04:20:24.751Z,1023.53
2018-12-29T04:21:24.774Z,1023.55
2018-12-29T04:22:24.795Z,1023.48
2018-12-29T04:23:24.818Z,1023.53
2018-12-29T04:24:24.836Z,1023.53
2018-12-29T04:25:24.860Z,1023.47
2018-12-29T04:26:24.880Z,1023.51
2018-12-29T04:27:24.903Z,1023.47
2018-12-29T04:28:24.925Z,1023.41
2018-12-29T04:29:24.951Z,1023.41
2018-12-29T04:30:24.968Z,1023.37
2018-12-29T04:31:24.992Z,1023.39
2018-12-29T04:32:25.013Z,1023.38
2018-12-29T04:33:25.039Z,1023.38
2018-12-29T04:34:25.058Z,1023.39
2018-12-29T04:35:25.082Z,1023.35
2018-12-29T04:36:25.106Z,1023.34
2018-12-29T04:37:25.127Z,1023.32
2018-12-29T04:38:25.145Z,1023.31
2018-12-29T04:39:25.170Z,1023.30
2018-12-29T04:40:25.252Z,1023.30
2018-12-29T04:41:25.214Z,1023.27
2018-12-29T04:42:25.236Z,1023.27
2018-12-29T04:43:25.259Z,1023.28
2018-12-29T04:44:25.278Z,1023.27
2018-12-29T04:45:25.303Z,1023.26
2018-12-29T04:46:25.323Z,1023.27
2018-12-29T04:47:25.345Z,1023.22
2018-12-29T04:48:25.370Z,1023.21
2018-12-29T04:49:25.394Z,1023.14
2018-12-29T04:50:25.411Z,1023.13
2018-12-29T04:51:25.434Z,1023.18
2018-12-29T04:52:25.457Z,1023.13
2018-12-29T04:53:25.477Z,1023.11
2018-12-29T04:54:25.499Z,1023.13
2018-12-29T04:55:25.524Z,1023.15
2018-12-29T04:56:25.544Z,1023.14
2018-12-29T04:57:25.571Z,1023.15
2018-12-29T04:58:25.588Z,1023.17
2018-12-29T04:59:25.612Z,1023.18
2018-12-29T05:00:25.633Z,1023.20
2018-12-29T05:01:25.657Z,1023.21
2018-12-29T05:02:25.678Z,1023.23
2018-12-29T05:03:25.697Z,1023.22
2018-12-29T05:04:25.723Z,1023.23
2018-12-29T05:05:25.745Z,1023.21
2018-12-29T05:06:25.766Z,1023.21
2018-12-29T05:07:25.786Z,1023.23
2018-12-29T05:08:25.807Z,1023.20
2018-12-29T05:09:25.831Z,1023.21
2018-12-29T05:10:25.854Z,1023.19
2018-12-29T05:11:25.877Z,1023.18
2018-12-29T05:12:25.899Z,1023.30
2018-12-29T05:13:25.919Z,1023.31
2018-12-29T05:14:25.943Z,1023.35
2018-12-29T05:15:25.963Z,1023.42
2018-12-29T05:16:25.989Z,1023.36
2018-12-29T05:17:26.007Z,1023.36
2018-12-29T05:18:26.031Z,1023.41
2018-12-29T05:19:26.056Z,1023.41
2018-12-29T05:20:26.074Z,1023.47
2018-12-29T05:21:26.100Z,1023.47
2018-12-29T05:22:26.117Z,1023.47
2018-12-29T05:23:26.142Z,1023.42
2018-12-29T05:24:26.164Z,1023.44
2018-12-29T05:25:26.186Z,1023.39
2018-12-29T05:26:26.208Z,1023.39
2018-12-29T05:27:26.228Z,1023.50
2018-12-29T05:28:26.254Z,1023.43
2018-12-29T05:29:26.276Z,1023.47
2018-12-29T05:30:26.295Z,1023.43
2018-12-29T05:31:26.320Z,1023.43
2018-12-29T05:32:26.340Z,1023.43
2018-12-29T05:33:26.364Z,1023.46
2018-12-29T05:34:26.386Z,1023.49
2018-12-29T05:35:26.409Z,1023.47
2018-12-29T05:36:26.429Z,1023.52
2018-12-29T05:37:26.454Z,1023.55
2018-12-29T05:38:26.473Z,1023.50
2018-12-29T05:39:26.496Z,1023.56
2018-12-29T05:40:26.520Z,1023.59
2018-12-29T05:41:26.540Z,1023.59
2018-12-29T05:42:26.565Z,1023.64
2018-12-29T05:43:26.589Z,1023.61
2018-12-29T05:44:26.608Z,1023.63
2018-12-29T05:45:26.631Z,1023.66
2018-12-29T05:46:26.654Z,1023.62
2018-12-29T05:47:26.677Z,1023.64
2018-12-29T05:48:26.697Z,1023.67
2018-12-29T05:49:26.722Z,1023.65
2018-12-29T05:50:26.742Z,1023.68
2018-12-29T05:51:26.769Z,1023.63
2018-12-29T05:52:26.787Z,1023.73
2018-12-29T05:53:26.808Z,1023.70
2018-12-29T05:54:26.831Z,1023.76
2018-12-29T05:55:26.854Z,1023.71
2018-12-29T05:56:26.876Z,1023.69
2018-12-29T05:57:26.901Z,1023.70
2018-12-29T05:58:26.921Z,1023.70
2018-12-29T05:59:26.945Z,1023.70
2018-12-29T06:00:26.969Z,1023.70
2018-12-29T06:01:26.990Z,1023.71
2018-12-29T06:02:27.013Z,1023.70
2018-12-29T06:03:27.034Z,1023.64
2018-12-29T06:04:27.057Z,1023.71
2018-12-29T06:05:27.077Z,1023.66
2018-12-29T06:06:27.100Z,1023.70
2018-12-29T06:07:27.123Z,1023.68
2018-12-29T06:08:27.143Z,1023.69
2018-12-29T06:09:27.168Z,1023.71
2018-12-29T06:10:27.189Z,1023.69
2018-12-29T06:11:27.210Z,1023.72
2018-12-29T06:12:27.232Z,1023.76
2018-12-29T06:13:27.255Z,1023.74
2018-12-29T06:14:27.277Z,1023.67
2018-12-29T06:15:27.301Z,1023.74
2018-12-29T06:16:27.755Z,1023.74
2018-12-29T06:17:27.344Z,1023.74
2018-12-29T06:18:27.365Z,1023.73
2018-12-29T06:19:27.389Z,1023.71
2018-12-29T06:20:27.410Z,1023.75
2018-12-29T06:21:27.434Z,1023.76
2018-12-29T06:22:27.455Z,1023.81
2018-12-29T06:23:27.477Z,1023.82
2018-12-29T06:24:27.500Z,1023.85
2018-12-29T06:25:27.520Z,1023.83
2018-12-29T06:26:27.544Z,1023.83
2018-12-29T06:27:27.568Z,1023.80
2018-12-29T06:28:27.589Z,1023.82
2018-12-29T06:29:27.611Z,1023.78
2018-12-29T06:30:27.631Z,1023.78
2018-12-29T06:31:27.656Z,1023.77
2018-12-29T06:32:27.679Z,1023.76
2018-12-29T06:33:27.701Z,1023.75
2018-12-29T06:34:27.720Z,1023.69
2018-12-29T06:35:27.742Z,1023.77
2018-12-29T06:36:27.766Z,1023.72
2018-12-29T06:37:27.789Z,1023.78
2018-12-29T06:38:27.810Z,1023.78
2018-12-29T06:39:27.832Z,1023.73
2018-12-29T06:40:27.853Z,1023.78
2018-12-29T06:41:27.879Z,1023.74
2018-12-29T06:42:27.900Z,1023.82
2018-12-29T06:43:27.920Z,1023.83
2018-12-29T06:44:27.944Z,1023.78
2018-12-29T06:45:27.966Z,1023.85
2018-12-29T06:46:34.707Z,1023.83
2018-12-29T06:47:28.010Z,1023.84
2018-12-29T06:48:28.030Z,1023.76
2018-12-29T06:49:28.053Z,1023.76
2018-12-29T06:50:28.075Z,1023.77
2018-12-29T06:51:28.096Z,1023.74
2018-12-29T06:52:28.118Z,1023.74
2018-12-29T06:53:28.140Z,1023.74
2018-12-29T06:54:28.162Z,1023.74
2018-12-29T06:55:28.187Z,1023.75
2018-12-29T06:56:28.208Z,1023.76
2018-12-29T06:57:28.234Z,1023.80
2018-12-29T06:58:28.253Z,1023.72
2018-12-29T06:59:28.277Z,1023.77
2018-12-29T07:00:28.307Z,1023.80
2018-12-29T07:01:28.321Z,1023.87
2018-12-29T07:02:28.343Z,1023.90
2018-12-29T07:03:28.363Z,1023.94
2018-12-29T07:04:28.384Z,1023.89
2018-12-29T07:05:28.409Z,1023.91
2018-12-29T07:06:28.430Z,1024.00
2018-12-29T07:07:28.453Z,1023.94
2018-12-29T07:08:28.475Z,1023.92
2018-12-29T07:09:28.499Z,1023.95
2018-12-29T07:10:28.520Z,1023.99
2018-12-29T07:11:28.540Z,1023.98
2018-12-29T07:12:28.565Z,1023.99
2018-12-29T07:13:28.588Z,1023.98
2018-12-29T07:14:28.609Z,1023.96
2018-12-29T07:15:28.633Z,1023.94
2018-12-29T07:16:28.652Z,1023.97
2018-12-29T07:17:28.675Z,1023.90
2018-12-29T07:18:28.695Z,1023.95
2018-12-29T07:19:28.718Z,1023.90
2018-12-29T07:20:28.739Z,1023.96
2018-12-29T07:21:28.765Z,1023.90
2018-12-29T07:22:28.786Z,1023.96
2018-12-29T07:23:28.807Z,1023.95
2018-12-29T07:24:28.831Z,1023.95
2018-12-29T07:25:28.852Z,1023.98
2018-12-29T07:26:28.875Z,1023.97
2018-12-29T07:27:28.897Z,1023.99
2018-12-29T07:28:28.918Z,1024.00
2018-12-29T07:29:28.940Z,1023.99
2018-12-29T07:30:28.963Z,1024.05
2018-12-29T07:31:28.991Z,1024.03
2018-12-29T07:32:29.009Z,1024.07
2018-12-29T07:33:29.031Z,1024.05
2018-12-29T07:34:29.059Z,1024.11
2018-12-29T07:35:29.075Z,1024.14
2018-12-29T07:36:29.098Z,1024.15
2018-12-29T07:37:29.120Z,1024.13
2018-12-29T07:38:29.145Z,1024.14
2018-12-29T07:39:29.366Z,1024.11
2018-12-29T07:40:29.187Z,1024.11
2018-12-29T07:41:29.210Z,1024.13
2018-12-29T07:42:29.228Z,1024.11
2018-12-29T07:43:29.253Z,1024.08
2018-12-29T07:44:29.275Z,1024.12
2018-12-29T07:45:29.297Z,1024.04
2018-12-29T07:46:29.317Z,1024.02
2018-12-29T07:47:29.340Z,1024.03
2018-12-29T07:48:29.443Z,1024.06
2018-12-29T07:49:29.387Z,1024.01
2018-12-29T07:50:29.407Z,1024.00
2018-12-29T07:51:29.429Z,1024.06
2018-12-29T07:52:29.452Z,1023.98
2018-12-29T07:53:29.474Z,1023.98
2018-12-29T07:54:29.496Z,1023.97
2018-12-29T07:55:29.521Z,1023.97
2018-12-29T07:56:29.543Z,1023.97
2018-12-29T07:57:29.563Z,1023.99
2018-12-29T07:58:29.585Z,1023.96
2018-12-29T07:59:29.607Z,1023.93
2018-12-29T08:00:29.629Z,1023.98
2018-12-29T08:01:29.654Z,1023.97
2018-12-29T08:02:29.675Z,1023.99
2018-12-29T08:03:29.696Z,1023.98
2018-12-29T08:04:29.718Z,1023.97
2018-12-29T08:05:29.746Z,1024.02
2018-12-29T08:06:29.764Z,1023.97
2018-12-29T08:07:29.787Z,1024.00
2018-12-29T08:08:29.813Z,1023.94
2018-12-29T08:09:29.835Z,1023.99
2018-12-29T08:10:29.852Z,1023.95
2018-12-29T08:11:29.874Z,1023.91
2018-12-29T08:12:29.899Z,1023.88
2018-12-29T08:13:29.921Z,1023.89
2018-12-29T08:14:29.944Z,1023.79
2018-12-29T08:15:29.963Z,1023.80
2018-12-29T08:16:29.986Z,1023.89
2018-12-29T08:17:30.011Z,1023.78
2018-12-29T08:18:30.032Z,1023.81
2018-12-29T08:19:30.052Z,1023.81
2018-12-29T08:20:30.075Z,1023.78
2018-12-29T08:21:30.097Z,1023.74
2018-12-29T08:22:30.121Z,1023.77
2018-12-29T08:23:30.144Z,1023.75
2018-12-29T08:24:30.168Z,1023.78
2018-12-29T08:25:30.190Z,1023.75
2018-12-29T08:26:30.211Z,1023.78
2018-12-29T08:27:30.231Z,1023.76
2018-12-29T08:28:30.257Z,1023.75
2018-12-29T08:29:30.280Z,1023.74
2018-12-29T08:30:30.299Z,1023.70
2018-12-29T08:31:30.321Z,1023.74
2018-12-29T08:32:30.348Z,1023.73
2018-12-29T08:33:30.369Z,1023.68
2018-12-29T08:34:30.388Z,1023.65
2018-12-29T08:35:30.413Z,1023.68
2018-12-29T08:36:30.433Z,1023.65
2018-12-29T08:37:30.461Z,1023.64
2018-12-29T08:38:30.480Z,1023.62
2018-12-29T08:39:30.505Z,1023.61
2018-12-29T08:40:30.523Z,1023.64
2018-12-29T08:41:30.548Z,1023.56
2018-12-29T08:42:30.569Z,1023.54
2018-12-29T08:43:30.593Z,1023.55
2018-12-29T08:44:30.616Z,1023.53
2018-12-29T08:45:30.637Z,1023.52
2018-12-29T08:46:30.662Z,1023.54
2018-12-29T08:47:30.680Z,1023.54
2018-12-29T08:48:30.703Z,1023.57
2018-12-29T08:49:30.725Z,1023.52
2018-12-29T08:50:30.749Z,1023.53
2018-12-29T08:51:30.777Z,1023.49
2018-12-29T08:52:30.792Z,1023.47
2018-12-29T08:53:30.814Z,1023.52
2018-12-29T08:54:30.841Z,1023.44
2018-12-29T08:55:30.862Z,1023.46
2018-12-29T08:56:30.882Z,1023.54
2018-12-29T08:57:30.905Z,1023.50
2018-12-29T08:58:30.929Z,1023.55
2018-12-29T08:59:30.955Z,1023.51
2018-12-29T09:00:30.975Z,1023.58
2018-12-29T09:01:30.997Z,1023.48
2018-12-29T09:02:31.022Z,1023.52
2018-12-29T09:03:31.043Z,1023.51
2018-12-29T09:04:31.065Z,1023.52
2018-12-29T09:05:31.085Z,1023.53
2018-12-29T09:06:31.112Z,1023.55
2018-12-29T09:07:31.134Z,1023.57
2018-12-29T09:08:31.158Z,1023.59
2018-12-29T09:09:31.179Z,1023.60
2018-12-29T09:10:31.198Z,1023.60
2018-12-29T09:11:31.223Z,1023.57
2018-12-29T09:12:31.246Z,1023.58
2018-12-29T09:13:31.268Z,1023.52
2018-12-29T09:14:31.287Z,1023.53
2018-12-29T09:15:31.313Z,1023.60
2018-12-29T09:16:31.336Z,1023.58
2018-12-29T09:17:31.358Z,1023.57
2018-12-29T09:18:31.379Z,1023.59
2018-12-29T09:19:31.407Z,1023.56
2018-12-29T09:20:31.426Z,1023.50
2018-12-29T09:21:31.448Z,1023.52
2018-12-29T09:22:31.469Z,1023.47
2018-12-29T09:23:31.492Z,1023.52
2018-12-29T09:24:31.517Z,1023.54
2018-12-29T09:25:31.538Z,1023.53
2018-12-29T09:26:31.560Z,1023.49
2018-12-29T09:27:31.585Z,1023.53
2018-12-29T09:28:31.607Z,1023.54
2018-12-29T09:29:31.632Z,1023.50
2018-12-29T09:30:31.651Z,1023.51
2018-12-29T09:31:31.674Z,1023.38
2018-12-29T09:32:31.699Z,1023.34
2018-12-29T09:33:31.719Z,1023.35
2018-12-29T09:34:31.742Z,1023.39
2018-12-29T09:35:31.768Z,1023.34
2018-12-29T09:36:31.790Z,1023.32
2018-12-29T09:37:31.812Z,1023.27
2018-12-29T09:38:31.834Z,1023.27
2018-12-29T09:39:31.857Z,1023.12
2018-12-29T09:40:31.884Z,1023.17
2018-12-29T09:41:31.900Z,1023.13
2018-12-29T09:42:31.923Z,1023.14
2018-12-29T09:43:31.949Z,1023.10
2018-12-29T09:44:31.973Z,1023.13
2018-12-29T09:45:31.994Z,1023.07
2018-12-29T09:46:32.017Z,1022.98
2018-12-29T09:47:32.042Z,1023.02
2018-12-29T09:48:32.065Z,1023.01
2018-12-29T09:49:32.085Z,1022.93
2018-12-29T09:50:32.107Z,1022.88
2018-12-29T09:51:32.130Z,1022.93
2018-12-29T09:52:32.156Z,1022.88
2018-12-29T09:53:32.174Z,1022.85
2018-12-29T09:54:32.201Z,1022.86
2018-12-29T09:55:32.221Z,1022.85
2018-12-29T09:56:32.244Z,1022.84
2018-12-29T09:57:32.267Z,1022.79
2018-12-29T09:58:32.288Z,1022.75
2018-12-29T09:59:32.311Z,1022.80
2018-12-29T10:00:32.336Z,1022.80
2018-12-29T10:01:32.356Z,1022.72
2018-12-29T10:02:32.379Z,1022.74
2018-12-29T10:03:32.402Z,1022.68
2018-12-29T10:04:32.425Z,1022.62
2018-12-29T10:05:32.453Z,1022.70
2018-12-29T10:06:32.473Z,1022.66
2018-12-29T10:07:32.494Z,1022.70
2018-12-29T10:08:32.524Z,1022.65
2018-12-29T10:09:32.542Z,1022.67
2018-12-29T10:10:32.563Z,1022.63
2018-12-29T10:11:32.586Z,1022.64
2018-12-29T10:12:32.614Z,1022.71
2018-12-29T10:13:32.632Z,1022.57
2018-12-29T10:14:32.655Z,1022.49
2018-12-29T10:15:32.681Z,1022.48
2018-12-29T10:16:32.703Z,1022.38
2018-12-29T10:17:32.724Z,1022.32
2018-12-29T10:18:32.746Z,1022.36
2018-12-29T10:19:32.776Z,1022.23
2018-12-29T10:20:32.795Z,1022.25
2018-12-29T10:21:32.816Z,1022.24
2018-12-29T10:22:32.838Z,1022.24
2018-12-29T10:23:32.863Z,1022.20
2018-12-29T10:24:32.887Z,1022.09
2018-12-29T10:25:32.908Z,1022.09
2018-12-29T10:26:32.938Z,1022.14
2018-12-29T10:27:32.956Z,1022.12
2018-12-29T10:28:32.977Z,1022.08
2018-12-29T10:29:33.021Z,1022.13
2018-12-29T10:30:33.026Z,1022.09
2018-12-29T10:31:33.047Z,1022.02
2018-12-29T10:32:33.071Z,1022.02
2018-12-29T10:33:33.096Z,1022.03
2018-12-29T10:34:33.117Z,1021.95
2018-12-29T10:35:33.141Z,1021.96
2018-12-29T10:36:33.164Z,1021.92
2018-12-29T10:37:33.184Z,1022.03
2018-12-29T10:38:33.207Z,1022.05
2018-12-29T10:39:33.238Z,1022.05
2018-12-29T10:40:33.256Z,1022.12
2018-12-29T10:41:33.279Z,1022.13
2018-12-29T10:42:33.301Z,1022.13
2018-12-29T10:43:33.324Z,1022.20
2018-12-29T10:44:33.348Z,1022.23
2018-12-29T10:45:33.369Z,1022.24
2018-12-29T10:46:33.396Z,1022.22
2018-12-29T10:47:34.665Z,1022.22
2018-12-29T10:48:33.438Z,1022.26
2018-12-29T10:49:33.463Z,1022.30
2018-12-29T10:50:33.484Z,1022.27
2018-12-29T10:51:33.509Z,1022.26
2018-12-29T10:52:33.530Z,1022.34
2018-12-29T10:53:33.553Z,1022.30
2018-12-29T10:54:33.578Z,1022.31
2018-12-29T10:55:33.604Z,1022.34
2018-12-29T10:56:33.624Z,1022.37
2018-12-29T10:57:33.648Z,1022.37
2018-12-29T10:58:33.668Z,1022.35
2018-12-29T10:59:33.693Z,1022.30
2018-12-29T11:00:35.145Z,1022.20
2018-12-29T11:01:33.745Z,1022.19
2018-12-29T11:02:33.763Z,1022.09
2018-12-29T11:03:33.783Z,1022.12
2018-12-29T11:04:33.806Z,1022.06
2018-12-29T11:05:33.830Z,1022.02
2018-12-29T11:06:33.851Z,1021.95
2018-12-29T11:07:33.879Z,1021.96
2018-12-29T11:08:33.899Z,1021.94
2018-12-29T11:09:33.925Z,1021.93
2018-12-29T11:10:33.944Z,1021.90
2018-12-29T11:11:33.970Z,1021.88
2018-12-29T11:12:33.991Z,1021.82
2018-12-29T11:13:34.014Z,1021.82
2018-12-29T11:14:34.039Z,1021.72
2018-12-29T11:15:34.060Z,1021.70
2018-12-29T11:16:34.086Z,1021.59
2018-12-29T11:17:34.107Z,1021.53
2018-12-29T11:18:34.131Z,1021.59
2018-12-29T11:19:34.153Z,1021.54
2018-12-29T11:20:34.179Z,1021.57
2018-12-29T11:21:34.202Z,1021.64
2018-12-29T11:22:34.225Z,1021.62
2018-12-29T11:23:34.246Z,1021.62
2018-12-29T11:24:34.269Z,1021.70
2018-12-29T11:25:34.297Z,1021.69
2018-12-29T11:26:34.317Z,1021.64
2018-12-29T11:27:34.338Z,1021.59
2018-12-29T11:28:34.361Z,1021.67
2018-12-29T11:29:34.413Z,1021.69
2018-12-29T11:30:34.408Z,1021.63
2018-12-29T11:31:34.433Z,1021.60
2018-12-29T11:32:34.455Z,1021.63
2018-12-29T11:33:34.481Z,1021.65
2018-12-29T11:34:34.506Z,1021.67
2018-12-29T11:35:34.524Z,1021.72
2018-12-29T11:36:34.557Z,1021.72
2018-12-29T11:37:34.573Z,1021.77
2018-12-29T11:38:34.598Z,1021.72
2018-12-29T11:39:34.619Z,1021.66
2018-12-29T11:40:34.640Z,1021.63
2018-12-29T11:41:34.667Z,1021.52
2018-12-29T11:42:34.700Z,1021.57
2018-12-29T11:43:34.710Z,1021.46
2018-12-29T11:44:34.733Z,1021.52
2018-12-29T11:45:34.761Z,1021.52
2018-12-29T11:46:34.781Z,1021.45
2018-12-29T11:47:34.806Z,1021.39
2018-12-29T11:48:34.828Z,1021.33
2018-12-29T11:49:34.849Z,1021.35
2018-12-29T11:50:34.874Z,1021.30
2018-12-29T11:51:34.896Z,1021.19
2018-12-29T11:52:34.919Z,1021.07
2018-12-29T11:53:34.944Z,1020.93
2018-12-29T11:54:34.965Z,1020.88
2018-12-29T11:55:34.995Z,1020.81
2018-12-29T11:56:35.014Z,1020.90
2018-12-29T11:57:35.036Z,1020.91
2018-12-29T11:58:35.060Z,1020.92
2018-12-29T11:59:35.082Z,1021.03
2018-12-29T12:00:35.106Z,1021.07
2018-12-29T12:01:35.131Z,1021.02
2018-12-29T12:02:35.153Z,1020.98
2018-12-29T12:03:35.177Z,1020.90
2018-12-29T12:04:35.201Z,1020.91
2018-12-29T12:05:35.225Z,1020.86